sensor_id;sensor_type;location;lat;lon;timestamp;P1;durP1;ratioP1;P2;durP2;ratioP2
40637;SDS011;26336;44.696;10.622;2023-03-08T00:00:20;11.23;;;8.77;;
40637;SDS011;26336;44.696;10.622;2023-03-08T00:03:24;13.48;;;8.63;;
40637;SDS011;26336;44.696;10.622;2023-03-08T00:06:29;12.10;;;8.80;;
40637;SDS011;26336;44.696;10.622;2023-03-08T00:09:33;11.23;;;8.23;;
40637;SDS011;26336;44.696;10.622;2023-03-08T00:12:37;13.17;;;8.33;;
40637;SDS011;26336;44.696;10.622;2023-03-08T00:15:43;14.03;;;9.60;;
40637;SDS011;26336;44.696;10.622;2023-03-08T00:18:47;13.10;;;9.20;;
40637;SDS011;26336;44.696;10.622;2023-03-08T00:21:51;12.47;;;8.27;;
40637;SDS011;26336;44.696;10.622;2023-03-08T00:24:55;12.03;;;8.27;;
40637;SDS011;26336;44.696;10.622;2023-03-08T00:27:59;12.97;;;8.23;;
40637;SDS011;26336;44.696;10.622;2023-03-08T00:31:04;13.70;;;7.83;;
40637;SDS011;26336;44.696;10.622;2023-03-08T00:34:21;13.90;;;7.90;;
40637;SDS011;26336;44.696;10.622;2023-03-08T00:37:25;13.03;;;7.43;;
40637;SDS011;26336;44.696;10.622;2023-03-08T00:40:29;13.47;;;8.70;;
40637;SDS011;26336;44.696;10.622;2023-03-08T00:43:33;14.03;;;8.13;;
40637;SDS011;26336;44.696;10.622;2023-03-08T00:46:39;12.63;;;8.17;;
40637;SDS011;26336;44.696;10.622;2023-03-08T00:49:44;13.80;;;8.77;;
40637;SDS011;26336;44.696;10.622;2023-03-08T00:52:48;13.13;;;7.53;;
40637;SDS011;26336;44.696;10.622;2023-03-08T00:55:52;9.97;;;7.20;;
40637;SDS011;26336;44.696;10.622;2023-03-08T00:58:58;11.27;;;7.53;;
40637;SDS011;26336;44.696;10.622;2023-03-08T01:02:02;13.27;;;8.37;;
40637;SDS011;26336;44.696;10.622;2023-03-08T01:05:07;14.33;;;7.77;;
40637;SDS011;26336;44.696;10.622;2023-03-08T01:08:12;11.13;;;7.70;;
40637;SDS011;26336;44.696;10.622;2023-03-08T01:11:23;14.80;;;8.90;;
40637;SDS011;26336;44.696;10.622;2023-03-08T01:14:28;12.60;;;8.00;;
40637;SDS011;26336;44.696;10.622;2023-03-08T01:17:33;11.07;;;7.30;;
40637;SDS011;26336;44.696;10.622;2023-03-08T01:20:36;11.27;;;7.80;;
40637;SDS011;26336;44.696;10.622;2023-03-08T01:23:40;10.97;;;6.97;;
40637;SDS011;26336;44.696;10.622;2023-03-08T01:26:44;13.30;;;8.50;;
40637;SDS011;26336;44.696;10.622;2023-03-08T01:29:48;11.97;;;7.50;;
40637;SDS011;26336;44.696;10.622;2023-03-08T01:32:53;14.53;;;7.93;;
40637;SDS011;26336;44.696;10.622;2023-03-08T01:35:57;11.30;;;7.73;;
40637;SDS011;26336;44.696;10.622;2023-03-08T01:39:01;10.47;;;6.57;;
40637;SDS011;26336;44.696;10.622;2023-03-08T01:42:05;8.83;;;6.33;;
40637;SDS011;26336;44.696;10.622;2023-03-08T01:55:17;10.43;;;5.87;;
40637;SDS011;26336;44.696;10.622;2023-03-08T01:58:22;7.67;;;5.33;;
40637;SDS011;26336;44.696;10.622;2023-03-08T02:01:28;6.33;;;5.43;;
40637;SDS011;26336;44.696;10.622;2023-03-08T02:04:34;6.50;;;5.23;;
40637;SDS011;26336;44.696;10.622;2023-03-08T02:07:39;6.70;;;5.43;;
40637;SDS011;26336;44.696;10.622;2023-03-08T02:10:44;6.70;;;5.00;;
40637;SDS011;26336;44.696;10.622;2023-03-08T02:13:48;7.27;;;5.07;;
40637;SDS011;26336;44.696;10.622;2023-03-08T02:16:54;8.17;;;4.63;;
40637;SDS011;26336;44.696;10.622;2023-03-08T02:20:01;8.70;;;4.87;;
40637;SDS011;26336;44.696;10.622;2023-03-08T02:23:17;12.70;;;5.77;;
40637;SDS011;26336;44.696;10.622;2023-03-08T02:29:30;9.80;;;5.70;;
40637;SDS011;26336;44.696;10.622;2023-03-08T02:32:35;7.17;;;5.70;;
40637;SDS011;26336;44.696;10.622;2023-03-08T02:35:39;9.00;;;5.03;;
40637;SDS011;26336;44.696;10.622;2023-03-08T02:38:45;9.60;;;5.83;;
40637;SDS011;26336;44.696;10.622;2023-03-08T02:41:48;7.17;;;4.77;;
40637;SDS011;26336;44.696;10.622;2023-03-08T02:44:52;9.17;;;5.07;;
40637;SDS011;26336;44.696;10.622;2023-03-08T02:47:56;6.30;;;4.80;;
40637;SDS011;26336;44.696;10.622;2023-03-08T02:51:00;7.07;;;4.80;;
40637;SDS011;26336;44.696;10.622;2023-03-08T02:54:04;7.10;;;4.70;;
40637;SDS011;26336;44.696;10.622;2023-03-08T02:57:08;6.10;;;4.33;;
40637;SDS011;26336;44.696;10.622;2023-03-08T03:00:14;6.37;;;4.37;;
40637;SDS011;26336;44.696;10.622;2023-03-08T03:03:18;7.40;;;4.50;;
40637;SDS011;26336;44.696;10.622;2023-03-08T03:06:22;6.87;;;3.93;;
40637;SDS011;26336;44.696;10.622;2023-03-08T03:09:29;7.27;;;4.30;;
40637;SDS011;26336;44.696;10.622;2023-03-08T03:12:34;6.00;;;3.90;;
40637;SDS011;26336;44.696;10.622;2023-03-08T03:15:40;6.57;;;3.53;;
40637;SDS011;26336;44.696;10.622;2023-03-08T03:18:45;5.50;;;4.00;;
40637;SDS011;26336;44.696;10.622;2023-03-08T03:21:49;5.40;;;3.50;;
40637;SDS011;26336;44.696;10.622;2023-03-08T03:24:54;5.13;;;3.23;;
40637;SDS011;26336;44.696;10.622;2023-03-08T03:27:57;5.60;;;3.60;;
40637;SDS011;26336;44.696;10.622;2023-03-08T03:31:09;4.80;;;3.43;;
40637;SDS011;26336;44.696;10.622;2023-03-08T03:34:17;7.80;;;3.63;;
40637;SDS011;26336;44.696;10.622;2023-03-08T03:37:23;8.77;;;3.97;;
40637;SDS011;26336;44.696;10.622;2023-03-08T03:40:27;4.87;;;3.40;;
40637;SDS011;26336;44.696;10.622;2023-03-08T03:43:37;5.77;;;3.80;;
40637;SDS011;26336;44.696;10.622;2023-03-08T03:46:45;5.00;;;3.77;;
40637;SDS011;26336;44.696;10.622;2023-03-08T03:49:52;5.00;;;3.30;;
40637;SDS011;26336;44.696;10.622;2023-03-08T03:52:58;6.63;;;3.27;;
40637;SDS011;26336;44.696;10.622;2023-03-08T03:56:09;5.40;;;2.80;;
40637;SDS011;26336;44.696;10.622;2023-03-08T03:59:20;5.40;;;2.63;;
40637;SDS011;26336;44.696;10.622;2023-03-08T04:02:24;4.60;;;2.60;;
40637;SDS011;26336;44.696;10.622;2023-03-08T04:05:33;3.30;;;2.57;;
40637;SDS011;26336;44.696;10.622;2023-03-08T04:08:37;6.80;;;3.10;;
40637;SDS011;26336;44.696;10.622;2023-03-08T04:11:45;4.17;;;2.73;;
40637;SDS011;26336;44.696;10.622;2023-03-08T04:14:57;6.30;;;3.17;;
40637;SDS011;26336;44.696;10.622;2023-03-08T04:18:05;3.33;;;2.87;;
40637;SDS011;26336;44.696;10.622;2023-03-08T04:21:11;5.17;;;3.23;;
40637;SDS011;26336;44.696;10.622;2023-03-08T04:24:16;6.93;;;3.53;;
40637;SDS011;26336;44.696;10.622;2023-03-08T04:27:24;5.33;;;3.87;;
40637;SDS011;26336;44.696;10.622;2023-03-08T04:30:28;4.33;;;2.73;;
40637;SDS011;26336;44.696;10.622;2023-03-08T04:33:33;3.97;;;3.20;;
40637;SDS011;26336;44.696;10.622;2023-03-08T04:36:37;4.73;;;2.97;;
40637;SDS011;26336;44.696;10.622;2023-03-08T04:39:42;6.77;;;3.10;;
40637;SDS011;26336;44.696;10.622;2023-03-08T04:42:47;4.20;;;3.27;;
40637;SDS011;26336;44.696;10.622;2023-03-08T04:45:54;4.80;;;3.03;;
40637;SDS011;26336;44.696;10.622;2023-03-08T04:48:59;3.73;;;2.70;;
40637;SDS011;26336;44.696;10.622;2023-03-08T04:52:07;6.80;;;3.13;;
40637;SDS011;26336;44.696;10.622;2023-03-08T04:55:14;5.23;;;3.43;;
40637;SDS011;26336;44.696;10.622;2023-03-08T04:58:18;4.63;;;3.33;;
40637;SDS011;26336;44.696;10.622;2023-03-08T05:01:23;5.50;;;2.73;;
40637;SDS011;26336;44.696;10.622;2023-03-08T05:04:29;3.70;;;2.90;;
40637;SDS011;26336;44.696;10.622;2023-03-08T05:07:33;3.63;;;2.63;;
40637;SDS011;26336;44.696;10.622;2023-03-08T05:10:39;4.27;;;2.97;;
40637;SDS011;26336;44.696;10.622;2023-03-08T05:13:49;3.87;;;2.87;;
40637;SDS011;26336;44.696;10.622;2023-03-08T05:16:54;5.17;;;3.73;;
40637;SDS011;26336;44.696;10.622;2023-03-08T05:19:59;4.10;;;3.10;;
40637;SDS011;26336;44.696;10.622;2023-03-08T05:23:10;5.77;;;3.10;;
40637;SDS011;26336;44.696;10.622;2023-03-08T05:26:18;5.67;;;3.20;;
40637;SDS011;26336;44.696;10.622;2023-03-08T05:29:24;4.90;;;3.60;;
40637;SDS011;26336;44.696;10.622;2023-03-08T05:32:28;7.30;;;3.87;;
40637;SDS011;26336;44.696;10.622;2023-03-08T05:35:32;6.40;;;3.50;;
40637;SDS011;26336;44.696;10.622;2023-03-08T05:38:37;7.43;;;3.83;;
40637;SDS011;26336;44.696;10.622;2023-03-08T05:41:44;7.30;;;3.80;;
40637;SDS011;26336;44.696;10.622;2023-03-08T05:44:51;5.43;;;3.63;;
40637;SDS011;26336;44.696;10.622;2023-03-08T05:48:00;7.10;;;3.90;;
40637;SDS011;26336;44.696;10.622;2023-03-08T05:51:10;6.47;;;3.90;;
40637;SDS011;26336;44.696;10.622;2023-03-08T05:54:17;5.33;;;4.07;;
40637;SDS011;26336;44.696;10.622;2023-03-08T05:57:26;6.30;;;3.23;;
40637;SDS011;26336;44.696;10.622;2023-03-08T06:00:31;7.13;;;3.37;;
40637;SDS011;26336;44.696;10.622;2023-03-08T06:03:35;5.83;;;3.10;;
40637;SDS011;26336;44.696;10.622;2023-03-08T06:06:42;5.97;;;3.37;;
40637;SDS011;26336;44.696;10.622;2023-03-08T06:09:46;7.43;;;4.20;;
40637;SDS011;26336;44.696;10.622;2023-03-08T06:12:53;5.87;;;4.03;;
40637;SDS011;26336;44.696;10.622;2023-03-08T06:16:01;7.73;;;4.27;;
40637;SDS011;26336;44.696;10.622;2023-03-08T06:19:07;10.20;;;4.80;;
40637;SDS011;26336;44.696;10.622;2023-03-08T06:22:14;7.23;;;3.90;;
40637;SDS011;26336;44.696;10.622;2023-03-08T06:25:19;4.87;;;3.20;;
40637;SDS011;26336;44.696;10.622;2023-03-08T06:28:23;5.77;;;3.53;;
40637;SDS011;26336;44.696;10.622;2023-03-08T06:31:29;6.30;;;3.47;;
40637;SDS011;26336;44.696;10.622;2023-03-08T06:34:34;5.83;;;3.33;;
40637;SDS011;26336;44.696;10.622;2023-03-08T06:37:38;10.63;;;3.93;;
40637;SDS011;26336;44.696;10.622;2023-03-08T06:40:43;7.33;;;4.37;;
40637;SDS011;26336;44.696;10.622;2023-03-08T06:43:47;6.87;;;3.93;;
40637;SDS011;26336;44.696;10.622;2023-03-08T06:46:51;10.70;;;3.97;;
40637;SDS011;26336;44.696;10.622;2023-03-08T06:49:55;7.23;;;4.40;;
40637;SDS011;26336;44.696;10.622;2023-03-08T06:52:59;5.10;;;3.40;;
40637;SDS011;26336;44.696;10.622;2023-03-08T06:56:18;7.63;;;3.83;;
40637;SDS011;26336;44.696;10.622;2023-03-08T06:59:22;6.87;;;4.40;;
40637;SDS011;26336;44.696;10.622;2023-03-08T07:02:26;10.60;;;5.67;;
40637;SDS011;26336;44.696;10.622;2023-03-08T07:05:30;7.20;;;5.17;;
40637;SDS011;26336;44.696;10.622;2023-03-08T07:08:36;10.07;;;5.50;;
40637;SDS011;26336;44.696;10.622;2023-03-08T07:11:42;9.67;;;5.63;;
40637;SDS011;26336;44.696;10.622;2023-03-08T07:14:50;7.47;;;4.50;;
40637;SDS011;26336;44.696;10.622;2023-03-08T07:17:55;9.07;;;3.73;;
40637;SDS011;26336;44.696;10.622;2023-03-08T07:21:04;10.60;;;4.13;;
40637;SDS011;26336;44.696;10.622;2023-03-08T07:24:08;5.80;;;4.03;;
40637;SDS011;26336;44.696;10.622;2023-03-08T07:27:13;9.40;;;4.63;;
40637;SDS011;26336;44.696;10.622;2023-03-08T07:30:18;7.60;;;3.97;;
40637;SDS011;26336;44.696;10.622;2023-03-08T07:33:23;6.70;;;4.60;;
40637;SDS011;26336;44.696;10.622;2023-03-08T07:36:27;7.57;;;4.73;;
40637;SDS011;26336;44.696;10.622;2023-03-08T07:39:32;6.67;;;4.20;;
40637;SDS011;26336;44.696;10.622;2023-03-08T07:42:36;9.83;;;4.80;;
40637;SDS011;26336;44.696;10.622;2023-03-08T07:45:52;6.10;;;4.00;;
40637;SDS011;26336;44.696;10.622;2023-03-08T07:48:56;8.20;;;3.97;;
40637;SDS011;26336;44.696;10.622;2023-03-08T07:52:00;8.83;;;4.30;;
40637;SDS011;26336;44.696;10.622;2023-03-08T07:55:04;8.07;;;4.53;;
40637;SDS011;26336;44.696;10.622;2023-03-08T07:58:11;8.80;;;5.03;;
40637;SDS011;26336;44.696;10.622;2023-03-08T08:01:16;9.77;;;5.20;;
40637;SDS011;26336;44.696;10.622;2023-03-08T08:04:21;18.00;;;6.57;;
40637;SDS011;26336;44.696;10.622;2023-03-08T08:07:26;10.63;;;7.17;;
40637;SDS011;26336;44.696;10.622;2023-03-08T08:10:30;17.43;;;7.37;;
40637;SDS011;26336;44.696;10.622;2023-03-08T08:13:34;15.20;;;7.73;;
40637;SDS011;26336;44.696;10.622;2023-03-08T08:16:38;16.67;;;8.13;;
40637;SDS011;26336;44.696;10.622;2023-03-08T08:19:42;16.20;;;9.27;;
40637;SDS011;26336;44.696;10.622;2023-03-08T08:22:46;13.70;;;8.13;;
40637;SDS011;26336;44.696;10.622;2023-03-08T08:25:54;16.77;;;10.93;;
40637;SDS011;26336;44.696;10.622;2023-03-08T08:28:58;20.20;;;11.97;;
40637;SDS011;26336;44.696;10.622;2023-03-08T08:32:06;17.25;;;11.88;;
40637;SDS011;26336;44.696;10.622;2023-03-08T08:35:13;20.53;;;12.53;;
40637;SDS011;26336;44.696;10.622;2023-03-08T08:38:17;16.17;;;10.83;;
40637;SDS011;26336;44.696;10.622;2023-03-08T08:41:24;15.48;;;10.80;;
40637;SDS011;26336;44.696;10.622;2023-03-08T08:44:28;17.87;;;10.87;;
40637;SDS011;26336;44.696;10.622;2023-03-08T08:47:32;20.27;;;12.60;;
40637;SDS011;26336;44.696;10.622;2023-03-08T08:50:36;20.63;;;13.70;;
40637;SDS011;26336;44.696;10.622;2023-03-08T08:53:44;26.03;;;14.77;;
40637;SDS011;26336;44.696;10.622;2023-03-08T08:56:51;22.23;;;16.75;;
40637;SDS011;26336;44.696;10.622;2023-03-08T08:59:55;24.13;;;16.25;;
40637;SDS011;26336;44.696;10.622;2023-03-08T09:02:59;26.00;;;16.98;;
40637;SDS011;26336;44.696;10.622;2023-03-08T09:06:04;25.70;;;17.30;;
40637;SDS011;26336;44.696;10.622;2023-03-08T09:09:08;30.05;;;18.20;;
40637;SDS011;26336;44.696;10.622;2023-03-08T09:12:12;26.27;;;16.48;;
40637;SDS011;26336;44.696;10.622;2023-03-08T09:15:16;24.75;;;17.10;;
40637;SDS011;26336;44.696;10.622;2023-03-08T09:18:26;31.02;;;17.38;;
40637;SDS011;26336;44.696;10.622;2023-03-08T09:21:33;27.40;;;18.15;;
40637;SDS011;26336;44.696;10.622;2023-03-08T09:24:37;21.27;;;15.27;;
40637;SDS011;26336;44.696;10.622;2023-03-08T09:27:41;22.90;;;16.27;;
40637;SDS011;26336;44.696;10.622;2023-03-08T09:30:45;25.60;;;17.42;;
40637;SDS011;26336;44.696;10.622;2023-03-08T09:33:53;24.75;;;17.58;;
40637;SDS011;26336;44.696;10.622;2023-03-08T09:37:00;27.50;;;17.33;;
40637;SDS011;26336;44.696;10.622;2023-03-08T09:40:05;27.13;;;18.33;;
40637;SDS011;26336;44.696;10.622;2023-03-08T09:43:13;30.92;;;18.65;;
40637;SDS011;26336;44.696;10.622;2023-03-08T09:46:28;28.60;;;16.77;;
40637;SDS011;26336;44.696;10.622;2023-03-08T09:49:36;24.65;;;16.38;;
40637;SDS011;26336;44.696;10.622;2023-03-08T09:59:27;24.35;;;17.40;;
40637;SDS011;26336;44.696;10.622;2023-03-08T10:09:41;25.27;;;16.55;;
40637;SDS011;26336;44.696;10.622;2023-03-08T10:17:07;27.55;;;19.17;;
40637;SDS011;26336;44.696;10.622;2023-03-08T10:20:25;24.25;;;18.33;;
40637;SDS011;26336;44.696;10.622;2023-03-08T10:23:34;24.35;;;16.42;;
40637;SDS011;26336;44.696;10.622;2023-03-08T10:26:41;26.35;;;18.95;;
40637;SDS011;26336;44.696;10.622;2023-03-08T10:29:47;23.80;;;16.95;;
40637;SDS011;26336;44.696;10.622;2023-03-08T10:32:57;23.90;;;14.82;;
40637;SDS011;26336;44.696;10.622;2023-03-08T10:36:07;24.63;;;17.08;;
40637;SDS011;26336;44.696;10.622;2023-03-08T10:39:20;22.40;;;15.32;;
40637;SDS011;26336;44.696;10.622;2023-03-08T10:42:25;24.88;;;16.23;;
40637;SDS011;26336;44.696;10.622;2023-03-08T10:45:31;27.45;;;16.75;;
40637;SDS011;26336;44.696;10.622;2023-03-08T10:48:36;22.08;;;15.43;;
40637;SDS011;26336;44.696;10.622;2023-03-08T10:51:49;28.65;;;16.52;;
40637;SDS011;26336;44.696;10.622;2023-03-08T10:55:14;18.00;;;13.18;;
40637;SDS011;26336;44.696;10.622;2023-03-08T10:58:31;17.35;;;12.95;;
40637;SDS011;26336;44.696;10.622;2023-03-08T11:01:47;18.75;;;14.68;;
40637;SDS011;26336;44.696;10.622;2023-03-08T11:04:57;20.95;;;12.98;;
40637;SDS011;26336;44.696;10.622;2023-03-08T11:08:01;21.55;;;15.43;;
40637;SDS011;26336;44.696;10.622;2023-03-08T11:11:08;26.30;;;16.13;;
40637;SDS011;26336;44.696;10.622;2023-03-08T11:14:17;23.80;;;14.27;;
40637;SDS011;26336;44.696;10.622;2023-03-08T11:17:27;19.88;;;12.23;;
40637;SDS011;26336;44.696;10.622;2023-03-08T11:20:39;13.77;;;9.68;;
40637;SDS011;26336;44.696;10.622;2023-03-08T11:30:56;19.40;;;12.77;;
40637;SDS011;26336;44.696;10.622;2023-03-08T11:37:25;15.85;;;10.93;;
40637;SDS011;26336;44.696;10.622;2023-03-08T11:47:30;19.52;;;11.68;;
40637;SDS011;26336;44.696;10.622;2023-03-08T11:50:59;14.38;;;10.27;;
40637;SDS011;26336;44.696;10.622;2023-03-08T11:54:18;12.18;;;8.70;;
40637;SDS011;26336;44.696;10.622;2023-03-08T11:57:37;15.50;;;9.88;;
40637;SDS011;26336;44.696;10.622;2023-03-08T12:00:52;16.88;;;9.02;;
40637;SDS011;26336;44.696;10.622;2023-03-08T12:04:12;16.52;;;10.10;;
40637;SDS011;26336;44.696;10.622;2023-03-08T12:08:04;17.73;;;10.55;;
40637;SDS011;26336;44.696;10.622;2023-03-08T12:10:54;15.27;;;9.73;;
40637;SDS011;26336;44.696;10.622;2023-03-08T12:14:19;15.60;;;10.35;;
40637;SDS011;26336;44.696;10.622;2023-03-08T12:17:32;17.10;;;12.27;;
40637;SDS011;26336;44.696;10.622;2023-03-08T12:20:39;17.08;;;13.05;;
40637;SDS011;26336;44.696;10.622;2023-03-08T12:27:07;15.15;;;11.70;;
40637;SDS011;26336;44.696;10.622;2023-03-08T12:33:32;17.90;;;12.27;;
40637;SDS011;26336;44.696;10.622;2023-03-08T12:36:47;17.60;;;11.15;;
40637;SDS011;26336;44.696;10.622;2023-03-08T12:40:03;21.25;;;12.32;;
40637;SDS011;26336;44.696;10.622;2023-03-08T12:43:30;15.75;;;11.63;;
40637;SDS011;26336;44.696;10.622;2023-03-08T12:46:50;19.52;;;12.57;;
40637;SDS011;26336;44.696;10.622;2023-03-08T12:50:23;18.30;;;11.35;;
40637;SDS011;26336;44.696;10.622;2023-03-08T12:56:37;14.95;;;10.93;;
40637;SDS011;26336;44.696;10.622;2023-03-08T13:00:03;15.43;;;11.48;;
40637;SDS011;26336;44.696;10.622;2023-03-08T13:16:31;16.42;;;9.80;;
40637;SDS011;26336;44.696;10.622;2023-03-08T13:19:40;16.98;;;12.35;;
40637;SDS011;26336;44.696;10.622;2023-03-08T13:29:43;17.17;;;12.30;;
40637;SDS011;26336;44.696;10.622;2023-03-08T13:32:49;17.77;;;10.95;;
40637;SDS011;26336;44.696;10.622;2023-03-08T13:36:00;22.73;;;12.20;;
40637;SDS011;26336;44.696;10.622;2023-03-08T13:39:18;16.02;;;10.38;;
40637;SDS011;26336;44.696;10.622;2023-03-08T13:42:27;15.20;;;10.35;;
40637;SDS011;26336;44.696;10.622;2023-03-08T13:45:31;19.90;;;11.63;;
40637;SDS011;26336;44.696;10.622;2023-03-08T13:48:35;15.73;;;11.57;;
40637;SDS011;26336;44.696;10.622;2023-03-08T13:51:40;17.50;;;10.95;;
40637;SDS011;26336;44.696;10.622;2023-03-08T13:54:53;16.42;;;11.50;;
40637;SDS011;26336;44.696;10.622;2023-03-08T13:58:24;20.83;;;10.80;;
40637;SDS011;26336;44.696;10.622;2023-03-08T14:01:35;15.55;;;10.77;;
40637;SDS011;26336;44.696;10.622;2023-03-08T14:04:53;16.13;;;9.43;;
40637;SDS011;26336;44.696;10.622;2023-03-08T14:08:01;20.25;;;11.18;;
40637;SDS011;26336;44.696;10.622;2023-03-08T14:11:07;9.48;;;6.88;;
40637;SDS011;26336;44.696;10.622;2023-03-08T14:14:33;12.55;;;7.40;;
40637;SDS011;26336;44.696;10.622;2023-03-08T14:17:40;14.98;;;10.88;;
40637;SDS011;26336;44.696;10.622;2023-03-08T14:21:06;17.17;;;10.38;;
40637;SDS011;26336;44.696;10.622;2023-03-08T14:24:21;12.80;;;8.65;;
40637;SDS011;26336;44.696;10.622;2023-03-08T14:27:31;14.73;;;9.20;;
40637;SDS011;26336;44.696;10.622;2023-03-08T14:30:45;16.13;;;8.82;;
40637;SDS011;26336;44.696;10.622;2023-03-08T14:33:57;16.50;;;9.57;;
40637;SDS011;26336;44.696;10.622;2023-03-08T14:43:28;14.68;;;10.07;;
40637;SDS011;26336;44.696;10.622;2023-03-08T14:46:33;15.80;;;9.95;;
40637;SDS011;26336;44.696;10.622;2023-03-08T14:49:39;14.75;;;8.95;;
40637;SDS011;26336;44.696;10.622;2023-03-08T14:52:57;13.68;;;8.73;;
40637;SDS011;26336;44.696;10.622;2023-03-08T14:56:13;14.50;;;9.02;;
40637;SDS011;26336;44.696;10.622;2023-03-08T14:59:26;17.02;;;9.05;;
40637;SDS011;26336;44.696;10.622;2023-03-08T15:02:33;17.33;;;8.82;;
40637;SDS011;26336;44.696;10.622;2023-03-08T15:05:40;12.02;;;8.07;;
40637;SDS011;26336;44.696;10.622;2023-03-08T15:08:44;11.73;;;5.93;;
40637;SDS011;26336;44.696;10.622;2023-03-08T15:15:23;5.05;;;2.25;;
40637;SDS011;26336;44.696;10.622;2023-03-08T15:18:27;4.40;;;1.77;;
40637;SDS011;26336;44.696;10.622;2023-03-08T15:21:31;6.63;;;2.42;;
40637;SDS011;26336;44.696;10.622;2023-03-08T15:24:38;3.03;;;1.80;;
40637;SDS011;26336;44.696;10.622;2023-03-08T15:27:46;6.00;;;2.20;;
40637;SDS011;26336;44.696;10.622;2023-03-08T15:30:50;5.30;;;1.58;;
40637;SDS011;26336;44.696;10.622;2023-03-08T15:33:57;7.93;;;1.50;;
40637;SDS011;26336;44.696;10.622;2023-03-08T15:37:26;3.15;;;1.45;;
40637;SDS011;26336;44.696;10.622;2023-03-08T15:40:30;7.13;;;1.80;;
40637;SDS011;26336;44.696;10.622;2023-03-08T15:43:35;5.05;;;1.63;;
40637;SDS011;26336;44.696;10.622;2023-03-08T15:46:42;2.92;;;1.52;;
40637;SDS011;26336;44.696;10.622;2023-03-08T15:49:48;4.00;;;1.50;;
40637;SDS011;26336;44.696;10.622;2023-03-08T15:52:53;5.82;;;1.60;;
40637;SDS011;26336;44.696;10.622;2023-03-08T15:55:58;4.63;;;1.38;;
40637;SDS011;26336;44.696;10.622;2023-03-08T15:59:02;2.05;;;1.40;;
40637;SDS011;26336;44.696;10.622;2023-03-08T16:02:09;6.68;;;1.38;;
40637;SDS011;26336;44.696;10.622;2023-03-08T16:05:17;4.78;;;1.35;;
40637;SDS011;26336;44.696;10.622;2023-03-08T16:08:30;4.80;;;1.77;;
40637;SDS011;26336;44.696;10.622;2023-03-08T16:11:39;3.95;;;1.30;;
40637;SDS011;26336;44.696;10.622;2023-03-08T16:14:47;5.45;;;1.38;;
40637;SDS011;26336;44.696;10.622;2023-03-08T16:17:52;3.63;;;0.98;;
40637;SDS011;26336;44.696;10.622;2023-03-08T16:20:56;3.17;;;1.15;;
40637;SDS011;26336;44.696;10.622;2023-03-08T16:24:01;2.72;;;1.10;;
40637;SDS011;26336;44.696;10.622;2023-03-08T16:27:09;1.77;;;0.93;;
40637;SDS011;26336;44.696;10.622;2023-03-08T16:30:14;4.43;;;1.55;;
40637;SDS011;26336;44.696;10.622;2023-03-08T16:33:18;3.65;;;1.73;;
40637;SDS011;26336;44.696;10.622;2023-03-08T16:36:22;2.92;;;1.42;;
40637;SDS011;26336;44.696;10.622;2023-03-08T16:39:26;2.45;;;1.15;;
40637;SDS011;26336;44.696;10.622;2023-03-08T16:42:33;3.30;;;1.38;;
40637;SDS011;26336;44.696;10.622;2023-03-08T16:45:38;4.53;;;1.55;;
40637;SDS011;26336;44.696;10.622;2023-03-08T16:48:59;2.30;;;1.25;;
40637;SDS011;26336;44.696;10.622;2023-03-08T16:52:03;3.78;;;2.25;;
40637;SDS011;26336;44.696;10.622;2023-03-08T16:55:10;2.25;;;1.70;;
40637;SDS011;26336;44.696;10.622;2023-03-08T16:58:17;2.53;;;1.30;;
40637;SDS011;26336;44.696;10.622;2023-03-08T17:01:27;4.07;;;1.52;;
40637;SDS011;26336;44.696;10.622;2023-03-08T17:04:33;7.43;;;2.15;;
40637;SDS011;26336;44.696;10.622;2023-03-08T17:07:40;5.15;;;2.15;;
40637;SDS011;26336;44.696;10.622;2023-03-08T17:10:44;6.82;;;2.25;;
40637;SDS011;26336;44.696;10.622;2023-03-08T17:13:48;4.93;;;1.83;;
40637;SDS011;26336;44.696;10.622;2023-03-08T17:16:56;1.95;;;1.38;;
40637;SDS011;26336;44.696;10.622;2023-03-08T17:20:00;2.42;;;1.15;;
40637;SDS011;26336;44.696;10.622;2023-03-08T17:23:04;3.75;;;1.50;;
40637;SDS011;26336;44.696;10.622;2023-03-08T17:26:09;3.83;;;1.45;;
40637;SDS011;26336;44.696;10.622;2023-03-08T17:29:15;3.08;;;1.50;;
40637;SDS011;26336;44.696;10.622;2023-03-08T17:32:19;4.30;;;1.80;;
40637;SDS011;26336;44.696;10.622;2023-03-08T17:35:25;2.88;;;1.20;;
40637;SDS011;26336;44.696;10.622;2023-03-08T17:38:30;5.47;;;1.77;;
40637;SDS011;26336;44.696;10.622;2023-03-08T17:41:36;3.85;;;1.60;;
40637;SDS011;26336;44.696;10.622;2023-03-08T17:44:40;3.80;;;1.48;;
40637;SDS011;26336;44.696;10.622;2023-03-08T17:47:44;3.88;;;1.75;;
40637;SDS011;26336;44.696;10.622;2023-03-08T17:50:48;5.75;;;1.50;;
40637;SDS011;26336;44.696;10.622;2023-03-08T17:53:53;1.92;;;1.38;;
40637;SDS011;26336;44.696;10.622;2023-03-08T17:56:59;3.15;;;1.45;;
40637;SDS011;26336;44.696;10.622;2023-03-08T18:00:03;4.18;;;1.50;;
40637;SDS011;26336;44.696;10.622;2023-03-08T18:03:09;3.50;;;1.50;;
40637;SDS011;26336;44.696;10.622;2023-03-08T18:06:16;5.00;;;1.55;;
40637;SDS011;26336;44.696;10.622;2023-03-08T18:09:27;1.95;;;1.50;;
40637;SDS011;26336;44.696;10.622;2023-03-08T18:12:32;3.80;;;1.42;;
40637;SDS011;26336;44.696;10.622;2023-03-08T18:15:36;5.45;;;2.00;;
40637;SDS011;26336;44.696;10.622;2023-03-08T18:18:40;4.72;;;2.10;;
40637;SDS011;26336;44.696;10.622;2023-03-08T18:21:44;7.05;;;3.00;;
40637;SDS011;26336;44.696;10.622;2023-03-08T18:24:54;3.30;;;2.08;;
40637;SDS011;26336;44.696;10.622;2023-03-08T18:27:58;3.83;;;1.90;;
40637;SDS011;26336;44.696;10.622;2023-03-08T18:31:06;4.18;;;2.15;;
40637;SDS011;26336;44.696;10.622;2023-03-08T18:34:14;5.05;;;2.13;;
40637;SDS011;26336;44.696;10.622;2023-03-08T18:37:18;4.72;;;3.42;;
40637;SDS011;26336;44.696;10.622;2023-03-08T18:40:22;6.82;;;4.10;;
40637;SDS011;26336;44.696;10.622;2023-03-08T18:43:27;8.90;;;3.15;;
40637;SDS011;26336;44.696;10.622;2023-03-08T18:46:35;9.07;;;4.10;;
40637;SDS011;26336;44.696;10.622;2023-03-08T18:49:40;4.53;;;2.42;;
40637;SDS011;26336;44.696;10.622;2023-03-08T18:52:46;5.82;;;3.03;;
40637;SDS011;26336;44.696;10.622;2023-03-08T18:55:53;6.85;;;3.47;;
40637;SDS011;26336;44.696;10.622;2023-03-08T18:58:59;5.95;;;3.05;;
40637;SDS011;26336;44.696;10.622;2023-03-08T19:02:05;6.30;;;2.97;;
40637;SDS011;26336;44.696;10.622;2023-03-08T19:05:10;8.35;;;3.15;;
40637;SDS011;26336;44.696;10.622;2023-03-08T19:08:14;5.65;;;2.80;;
40637;SDS011;26336;44.696;10.622;2023-03-08T19:11:19;7.20;;;3.25;;
40637;SDS011;26336;44.696;10.622;2023-03-08T19:14:24;6.82;;;3.38;;
40637;SDS011;26336;44.696;10.622;2023-03-08T19:17:31;6.22;;;3.40;;
40637;SDS011;26336;44.696;10.622;2023-03-08T19:20:36;7.68;;;4.13;;
40637;SDS011;26336;44.696;10.622;2023-03-08T19:23:41;9.43;;;5.28;;
40637;SDS011;26336;44.696;10.622;2023-03-08T19:26:48;6.00;;;2.95;;
40637;SDS011;26336;44.696;10.622;2023-03-08T19:29:53;7.35;;;3.17;;
40637;SDS011;26336;44.696;10.622;2023-03-08T19:32:57;7.50;;;3.58;;
40637;SDS011;26336;44.696;10.622;2023-03-08T19:36:02;6.75;;;3.67;;
40637;SDS011;26336;44.696;10.622;2023-03-08T19:39:07;7.85;;;4.20;;
40637;SDS011;26336;44.696;10.622;2023-03-08T19:42:13;6.50;;;3.20;;
40637;SDS011;26336;44.696;10.622;2023-03-08T19:45:18;6.93;;;3.53;;
40637;SDS011;26336;44.696;10.622;2023-03-08T19:48:25;7.35;;;3.13;;